Time;durP1;ratioP1;P1;durP2;ratioP2;P2;SDS_P1;SDS_P2;PMS_P1;PMS_P2;Temp;Humidity;BMP_temperature;BMP_pressure;BME280_temperature;BME280_humidity;BME280_pressure;Samples;Min_cycle;Max_cycle;Signal;HPM_P1;HPM_P2
2023/09/14 00:01:59;;;;;;;;;;;;;;;13.94;94.04;102211.28;5026649;28;1001;-77
2023/09/14 00:04:24;;;;;;;;;;;;;;;13.96;93.98;102225.03;5037811;28;1086;-77
2023/09/14 00:06:49;;;;;;;;;;;;;;;13.99;94.15;102215.22;5033594;28;1154;-77
2023/09/14 00:09:14;;;;;;;;;;;;;;;14.01;94.07;102218.53;5031011;28;1088;-77
2023/09/14 00:11:40;;;;;;;;;;;;;;;14.03;94.38;102227.06;5026225;28;1178;-77
2023/09/14 00:14:05;;;;;;;;;;;;;;;14.06;94.23;102220.81;5033028;28;1899;-77
2023/09/14 00:16:31;;;;;;;;;;;;;;;14.07;94.56;102223.28;5028597;28;1018;-77
2023/09/14 00:18:56;;;;;;;;;;;;;;;14.08;94.43;102224.13;5031437;28;1158;-77
2023/09/14 00:21:21;;;;;;;;;;;;;;;14.09;94.76;102220.56;5027720;28;1148;-77
2023/09/14 00:23:47;;;;;;;;;;;;;;;14.09;94.71;102210.13;5030118;28;1063;-78
2023/09/14 00:26:12;;;;;;;;;;;;;;;14.10;94.54;102209.16;5031835;28;1261;-78
2023/09/14 00:28:37;;;;;;;;;;;;;;;14.11;94.56;102208.25;5031489;28;1496;-78
2023/09/14 00:31:02;;;;;;;;;;;;;;;14.07;94.68;102207.63;5028000;28;1333;-78
2023/09/14 00:33:27;;;;;;;;;;;;;;;14.06;94.59;102205.16;5022458;28;1906;-77
2023/09/14 00:35:53;;;;;;;;;;;;;;;14.03;95.05;102202.75;5019956;28;1455;-77
2023/09/14 00:38:18;;;;;;;;;;;;;;;14.02;94.82;102214.13;5021636;28;1336;-78
2023/09/14 00:40:43;;;;;;;;;;;;;;;13.98;94.81;102207.47;5023090;28;1299;-78
2023/09/14 00:43:08;;;;;;;;;;;;;;;13.98;94.74;102213.53;5023977;28;1357;-78
2023/09/14 00:45:34;;;;;;;;;;;;;;;13.97;94.83;102213.66;5027902;28;1582;-77
2023/09/14 00:48:01;;;;;;;;;;;;;;;13.94;94.75;102206.06;5031461;28;1679;-78
2023/09/14 00:50:28;;;;;;;;;;;;;;;13.90;94.76;102210.66;5029887;28;1276;-78
2023/09/14 00:52:55;;;;;;;;;;;;;;;13.87;94.93;102210.03;5031089;28;2538;-79
2023/09/14 00:55:22;;;;;;;;;;;;;;;13.81;94.85;102209.53;5025081;28;1949;-78
2023/09/14 00:57:47;;;;;;;;;;;;;;;13.79;95.07;102208.00;5030982;28;1208;-78
2023/09/14 01:00:13;;;;;;;;;;;;;;;13.76;95.14;102198.66;5028576;28;1220;-78
2023/09/14 01:02:39;;;;;;;;;;;;;;;13.72;95.07;102212.84;5038512;28;1306;-78
2023/09/14 01:05:05;;;;;;;;;;;;;;;13.71;95.46;102211.19;5030252;28;1307;-79
2023/09/14 01:07:31;;;;;;;;;;;;;;;13.72;95.39;102207.63;5030189;28;1291;-78
2023/09/14 01:09:57;;;;;;;;;;;;;;;13.70;95.34;102212.09;5025487;28;1377;-78
2023/09/14 01:12:22;;;;;;;;;;;;;;;13.68;95.40;102208.78;5034297;28;973;-78
2023/09/14 01:14:54;;;;;;;;;;;;;;;13.69;95.38;102207.00;5031776;28;1906;-78
2023/09/14 01:17:38;;;;;;;;;;;;;;;13.65;95.33;102216.84;5031628;28;1088;-78
2023/09/14 01:20:04;;;;;;;;;;;;;;;13.62;95.52;102216.22;5027801;28;1037;-79
2023/09/14 01:22:39;;;;;;;;;;;;;;;13.62;95.39;102222.25;5025623;28;1192;-78
2023/09/14 01:25:14;;;;;;;;;;;;;;;13.62;95.50;102205.78;5028958;28;1239;-78
2023/09/14 01:27:39;;;;;;;;;;;;;;;13.60;95.39;102208.53;5024594;28;1028;-78
2023/09/14 01:30:06;;;;;;;;;;;;;;;13.58;95.51;102210.38;5030268;28;960;-77
2023/09/14 01:32:31;;;;;;;;;;;;;;;13.55;95.56;102216.66;5027672;28;1280;-78
2023/09/14 01:34:56;;;;;;;;;;;;;;;13.54;95.58;102208.97;5027348;28;1968;-78
2023/09/14 01:37:22;;;;;;;;;;;;;;;13.52;95.36;102213.44;5023705;28;1209;-78
2023/09/14 01:39:47;;;;;;;;;;;;;;;13.49;95.81;102213.66;5022905;28;1239;-78
2023/09/14 01:42:13;;;;;;;;;;;;;;;13.48;95.69;102204.19;5024978;28;1373;-77
2023/09/14 01:44:39;;;;;;;;;;;;;;;13.45;95.54;102199.19;5017300;28;1446;-77
2023/09/14 01:47:04;;;;;;;;;;;;;;;13.44;95.53;102200.13;5011892;28;1422;-78
2023/09/14 01:49:29;;;;;;;;;;;;;;;13.41;95.58;102205.56;5025777;28;1420;-77
2023/09/14 01:51:55;;;;;;;;;;;;;;;13.37;95.76;102206.72;5035702;28;1072;-78
2023/09/14 01:54:20;;;;;;;;;;;;;;;13.34;95.70;102206.94;5030463;28;1965;-78
2023/09/14 01:56:45;;;;;;;;;;;;;;;13.32;96.08;102203.63;5034804;28;1192;-78
2023/09/14 01:59:10;;;;;;;;;;;;;;;13.26;95.87;102205.72;5035560;28;1133;-78
2023/09/14 02:01:36;;;;;;;;;;;;;;;13.24;96.05;102204.97;5028985;28;1281;-78
2023/09/14 02:04:01;;;;;;;;;;;;;;;13.23;96.17;102210.31;5031207;28;1502;-78
2023/09/14 02:06:26;;;;;;;;;;;;;;;13.20;96.32;102206.13;5035760;28;1112;-77
2023/09/14 02:08:51;;;;;;;;;;;;;;;13.18;96.14;102202.78;5039388;28;1172;-78
2023/09/14 02:11:17;;;;;;;;;;;;;;;13.14;96.42;102201.34;5036085;28;1211;-78
2023/09/14 02:13:42;;;;;;;;;;;;;;;13.11;96.59;102206.75;5035316;28;1927;-78
2023/09/14 02:16:07;;;;;;;;;;;;;;;13.07;96.81;102194.88;5034751;28;1204;-77
2023/09/14 02:18:32;;;;;;;;;;;;;;;13.06;96.94;102193.22;5030820;28;1776;-78
2023/09/14 02:20:58;;;;;;;;;;;;;;;13.06;96.96;102198.44;5033956;28;1691;-78
2023/09/14 02:23:23;;;;;;;;;;;;;;;13.07;96.97;102194.06;5032040;28;1955;-78
2023/09/14 02:25:48;;;;;;;;;;;;;;;13.06;97.05;102192.38;5034807;28;1518;-78
2023/09/14 02:28:15;;;;;;;;;;;;;;;13.04;96.97;102197.72;5033861;28;1687;-78
2023/09/14 02:30:40;;;;;;;;;;;;;;;13.02;96.85;102191.78;5030157;28;1228;-78
2023/09/14 02:33:07;;;;;;;;;;;;;;;13.00;96.96;102202.28;5033124;28;1281;-78
2023/09/14 02:35:32;;;;;;;;;;;;;;;12.93;96.89;102197.63;5033744;28;1297;-78
2023/09/14 02:37:57;;;;;;;;;;;;;;;12.88;97.64;102191.91;5034148;28;1331;-78
2023/09/14 02:40:23;;;;;;;;;;;;;;;12.85;97.47;102185.16;5031204;28;1169;-78
2023/09/14 02:42:48;;;;;;;;;;;;;;;12.84;97.37;102177.44;5032330;28;1296;-78
2023/09/14 02:45:13;;;;;;;;;;;;;;;12.82;97.16;102187.13;5029901;28;1949;-78
2023/09/14 02:47:38;;;;;;;;;;;;;;;12.79;97.66;102184.72;5029638;28;1439;-78
2023/09/14 02:50:03;;;;;;;;;;;;;;;12.74;97.94;102183.28;5028189;28;1311;-77
2023/09/14 02:52:29;;;;;;;;;;;;;;;12.73;97.56;102186.84;5030701;28;1285;-78
2023/09/14 02:54:54;;;;;;;;;;;;;;;12.72;97.97;102185.16;5024090;28;1203;-78
2023/09/14 02:57:19;;;;;;;;;;;;;;;12.68;97.96;102178.50;5032448;28;1169;-78
2023/09/14 02:59:44;;;;;;;;;;;;;;;12.68;98.02;102188.94;5042651;28;1398;-78
2023/09/14 03:02:09;;;;;;;;;;;;;;;12.67;98.38;102187.25;5039077;28;1240;-78
2023/09/14 03:04:35;;;;;;;;;;;;;;;12.67;98.36;102182.06;5036851;28;2249;-77
2023/09/14 03:07:00;;;;;;;;;;;;;;;12.65;98.41;102183.91;5025117;28;1645;-77
2023/09/14 03:09:25;;;;;;;;;;;;;;;12.64;98.34;102177.03;5034891;28;1068;-78
2023/09/14 03:11:50;;;;;;;;;;;;;;;12.63;98.25;102178.00;5037834;28;1262;-78
2023/09/14 03:14:15;;;;;;;;;;;;;;;12.60;98.76;102175.59;5030799;28;1335;-77
2023/09/14 03:16:41;;;;;;;;;;;;;;;12.59;98.53;102184.34;5036405;28;1343;-78
2023/09/14 03:19:06;;;;;;;;;;;;;;;12.57;98.42;102181.00;5034946;28;1488;-78
2023/09/14 03:21:31;;;;;;;;;;;;;;;12.57;98.57;102181.00;5034300;28;1106;-78
2023/09/14 03:23:56;;;;;;;;;;;;;;;12.56;98.97;102179.34;5031044;28;1890;-78
2023/09/14 03:26:28;;;;;;;;;;;;;;;12.54;98.93;102186.41;5034474;28;1151;-78
2023/09/14 03:28:53;;;;;;;;;;;;;;;12.53;98.65;102187.34;5024939;28;1368;-78
2023/09/14 03:31:19;;;;;;;;;;;;;;;12.52;99.23;102192.69;5033054;28;1228;-77
2023/09/14 03:33:47;;;;;;;;;;;;;;;12.48;98.94;102186.84;5030383;28;1614;-78
2023/09/14 03:36:13;;;;;;;;;;;;;;;12.47;98.98;102192.97;5036303;28;1331;-78
2023/09/14 03:38:38;;;;;;;;;;;;;;;12.45;99.25;102192.25;5032263;28;1360;-77
2023/09/14 03:41:03;;;;;;;;;;;;;;;12.44;99.00;102185.38;5028277;28;1319;-78
2023/09/14 03:43:29;;;;;;;;;;;;;;;12.45;98.93;102187.06;5030729;28;1914;-78
2023/09/14 03:45:55;;;;;;;;;;;;;;;12.43;99.29;102194.94;5029152;28;1257;-78
2023/09/14 03:48:20;;;;;;;;;;;;;;;12.43;99.05;102199.31;5031239;28;1347;-78
2023/09/14 03:50:46;;;;;;;;;;;;;;;12.44;99.11;102195.78;5030655;28;1238;-78
2023/09/14 03:53:11;;;;;;;;;;;;;;;12.43;98.92;102188.91;5031493;28;1287;-78
2023/09/14 03:55:36;;;;;;;;;;;;;;;12.48;99.47;102192.03;5030649;28;1147;-77
2023/09/14 03:58:01;;;;;;;;;;;;;;;12.48;99.24;102187.66;5027381;28;1226;-78
2023/09/14 04:00:27;;;;;;;;;;;;;;;12.49;99.51;102191.94;5019997;28;1602;-77
2023/09/14 04:02:52;;;;;;;;;;;;;;;12.53;99.27;102195.16;5035394;28;1403;-77
2023/09/14 04:05:17;;;;;;;;;;;;;;;12.54;99.43;102190.78;5031697;28;1890;-78
2023/09/14 04:07:43;;;;;;;;;;;;;;;12.53;99.24;102195.16;5039121;28;1148;-79
2023/09/14 04:10:10;;;;;;;;;;;;;;;12.54;99.37;102194.22;5031458;28;1254;-78
2023/09/14 04:12:36;;;;;;;;;;;;;;;12.56;99.74;102189.75;5029585;28;1196;-78
2023/09/14 04:15:02;;;;;;;;;;;;;;;12.55;99.23;102188.06;5021542;28;1259;-77
2023/09/14 04:17:28;;;;;;;;;;;;;;;12.55;99.35;102182.88;5029683;28;1938;-78
2023/09/14 04:19:53;;;;;;;;;;;;;;;12.53;99.42;102184.75;5032159;28;1067;-78
2023/09/14 04:22:18;;;;;;;;;;;;;;;12.51;99.15;102186.63;5025750;28;1321;-78
2023/09/14 04:24:43;;;;;;;;;;;;;;;12.47;99.52;102185.19;5030196;28;1921;-78
2023/09/14 04:27:09;;;;;;;;;;;;;;;12.45;99.90;102187.88;5030272;28;1269;-78
2023/09/14 04:29:34;;;;;;;;;;;;;;;12.45;99.44;102193.09;5023685;28;1363;-78
2023/09/14 04:31:59;;;;;;;;;;;;;;;12.43;99.63;102183.72;5027801;28;1249;-77
2023/09/14 04:34:24;;;;;;;;;;;;;;;12.39;99.58;102187.47;5031747;28;1241;-77
2023/09/14 04:36:49;;;;;;;;;;;;;;;12.38;99.28;102191.00;5034193;28;1574;-78
2023/09/14 04:39:15;;;;;;;;;;;;;;;12.35;99.63;102180.81;5035041;28;1608;-78
2023/09/14 04:41:40;;;;;;;;;;;;;;;12.29;99.41;102183.81;5027820;28;1087;-77
2023/09/14 04:44:05;;;;;;;;;;;;;;;12.30;99.59;102188.09;5028277;28;1894;-79
2023/09/14 04:46:31;;;;;;;;;;;;;;;12.26;99.81;102186.59;5032161;28;1407;-78
2023/09/14 04:48:56;;;;;;;;;;;;;;;12.27;99.67;102188.28;5033394;28;1314;-78
2023/09/14 04:51:23;;;;;;;;;;;;;;;12.27;99.81;102188.28;5034629;28;1330;-78
2023/09/14 04:53:48;;;;;;;;;;;;;;;12.26;99.63;102194.41;5028209;28;1296;-77
2023/09/14 04:56:13;;;;;;;;;;;;;;;12.20;99.07;102199.09;5028894;28;1244;-78
2023/09/14 04:58:39;;;;;;;;;;;;;;;12.16;98.94;102197.66;5022931;28;1139;-77
2023/09/14 05:01:05;;;;;;;;;;;;;;;12.13;99.57;102205.63;5025455;28;1486;-78
2023/09/14 05:03:30;;;;;;;;;;;;;;;12.09;99.20;102191.16;5021688;28;1890;-76
2023/09/14 05:05:55;;;;;;;;;;;;;;;12.05;99.87;102196.69;5026047;28;1348;-76
2023/09/14 05:08:21;;;;;;;;;;;;;;;12.00;99.13;102191.78;5024515;28;1233;-76
2023/09/14 05:10:49;;;;;;;;;;;;;;;11.98;99.55;102196.25;5026497;28;1108;-76
2023/09/14 05:13:15;;;;;;;;;;;;;;;11.96;99.35;102200.72;5038513;28;1002;-76
2023/09/14 05:15:40;;;;;;;;;;;;;;;11.94;100.00;102195.63;5032075;28;1186;-76
2023/09/14 05:18:05;;;;;;;;;;;;;;;11.93;100.00;102201.75;5028621;28;1060;-76
2023/09/14 05:20:31;;;;;;;;;;;;;;;11.93;100.00;102200.94;5031305;28;1076;-77
2023/09/14 05:22:56;;;;;;;;;;;;;;;11.92;99.48;102201.84;5030164;28;887;-75
2023/09/14 05:25:21;;;;;;;;;;;;;;;11.90;100.00;102201.13;5032693;28;1965;-75
2023/09/14 05:27:46;;;;;;;;;;;;;;;11.88;100.00;102208.19;5028543;28;1135;-77
2023/09/14 05:30:11;;;;;;;;;;;;;;;11.85;100.00;102206.59;5032931;28;1072;-76
2023/09/14 05:32:39;;;;;;;;;;;;;;;11.89;100.00;102209.84;5023980;28;1221;-76
2023/09/14 05:35:06;;;;;;;;;;;;;;;11.91;100.00;102213.19;5033153;28;1256;-76
2023/09/14 05:37:31;;;;;;;;;;;;;;;11.88;100.00;102218.59;5028015;28;1253;-76
2023/09/14 05:39:57;;;;;;;;;;;;;;;11.87;99.92;102211.69;5031108;28;1213;-76
2023/09/14 05:42:22;;;;;;;;;;;;;;;11.86;100.00;102216.06;5026903;28;1338;-76
2023/09/14 05:44:48;;;;;;;;;;;;;;;11.86;100.00;102215.25;5030935;28;1965;-76
2023/09/14 05:47:14;;;;;;;;;;;;;;;11.85;100.00;102219.59;5028065;28;1814;-76
2023/09/14 05:49:39;;;;;;;;;;;;;;;11.87;100.00;102216.91;5029479;28;2152;-76
2023/09/14 05:52:05;;;;;;;;;;;;;;;11.87;100.00;102211.69;5018778;28;1296;-76
2023/09/14 05:54:30;;;;;;;;;;;;;;;11.88;100.00;102218.59;5026341;28;1324;-76
2023/09/14 05:56:56;;;;;;;;;;;;;;;11.91;100.00;102214.00;5023574;28;1253;-77
2023/09/14 05:59:21;;;;;;;;;;;;;;;11.99;100.00;102226.53;5028756;28;1066;-78
2023/09/14 06:01:47;;;;;;;;;;;;;;;12.06;100.00;102227.78;5027550;28;1237;-78
2023/09/14 06:04:12;;;;;;;;;;;;;;;12.11;100.00;102225.72;5022806;28;1981;-78
2023/09/14 06:06:37;;;;;;;;;;;;;;;12.18;100.00;102226.97;5024606;28;1225;-77
2023/09/14 06:09:02;;;;;;;;;;;;;;;12.22;99.64;102228.44;5022972;28;1028;-77
2023/09/14 06:11:27;;;;;;;;;;;;;;;12.27;99.65;102229.91;5023387;28;1288;-77
2023/09/14 06:13:53;;;;;;;;;;;;;;;12.28;100.00;102231.59;5023569;28;1391;-77
2023/09/14 06:16:18;;;;;;;;;;;;;;;12.29;99.45;102234.06;5032089;28;1243;-78
2023/09/14 06:18:43;;;;;;;;;;;;;;;12.31;99.28;102226.16;5027053;28;1522;-78
2023/09/14 06:21:09;;;;;;;;;;;;;;;12.35;99.90;102225.03;5030956;28;1196;-77
2023/09/14 06:23:34;;;;;;;;;;;;;;;12.37;99.36;102230.97;5033633;28;1961;-78
2023/09/14 06:25:59;;;;;;;;;;;;;;;12.36;99.83;102224.09;5029963;28;1287;-78
2023/09/14 06:28:24;;;;;;;;;;;;;;;12.39;99.58;102229.09;5039284;28;1242;-78
2023/09/14 06:30:49;;;;;;;;;;;;;;;12.41;99.33;102220.25;5034038;28;1212;-77
2023/09/14 06:33:14;;;;;;;;;;;;;;;12.44;99.64;102222.66;5036759;28;1516;-77
2023/09/14 06:35:40;;;;;;;;;;;;;;;12.47;99.84;102232.84;5027631;28;1748;-78
2023/09/14 06:38:05;;;;;;;;;;;;;;;12.51;99.17;102230.88;5029019;28;1303;-78
2023/09/14 06:40:30;;;;;;;;;;;;;;;12.55;99.23;102229.72;5033888;28;1013;-77
2023/09/14 06:42:56;;;;;;;;;;;;;;;12.59;99.66;102236.38;5032087;28;1309;-77
2023/09/14 06:45:21;;;;;;;;;;;;;;;12.62;99.19;102231.00;5037052;28;1963;-78
2023/09/14 06:47:46;;;;;;;;;;;;;;;12.66;99.10;102232.44;5039274;28;1116;-78
2023/09/14 06:50:12;;;;;;;;;;;;;;;12.71;99.31;102237.31;5028284;28;1076;-77
2023/09/14 06:52:37;;;;;;;;;;;;;;;12.74;98.87;102235.34;5031750;28;1127;-77
2023/09/14 06:55:03;;;;;;;;;;;;;;;12.77;98.84;102236.91;5029320;28;1145;-77
2023/09/14 06:57:29;;;;;;;;;;;;;;;12.82;98.94;102236.59;5035502;28;1110;-78
2023/09/14 06:59:54;;;;;;;;;;;;;;;12.88;98.98;102244.00;5025172;28;1209;-78
2023/09/14 07:02:19;;;;;;;;;;;;;;;12.91;99.02;102239.41;5028821;28;1169;-78
2023/09/14 07:04:44;;;;;;;;;;;;;;;12.95;98.79;102243.44;5030533;28;1957;-78
2023/09/14 07:07:09;;;;;;;;;;;;;;;13.01;98.69;102242.19;5033855;28;1407;-78
2023/09/14 07:09:35;;;;;;;;;;;;;;;13.06;98.76;102244.47;5029215;28;1098;-77
2023/09/14 07:12:00;;;;;;;;;;;;;;;13.11;99.01;102243.22;5031995;28;1010;-78
2023/09/14 07:14:25;;;;;;;;;;;;;;;13.15;98.50;102241.25;5028912;28;1129;-78
2023/09/14 07:16:50;;;;;;;;;;;;;;;13.19;98.89;102240.06;5026000;28;1228;-78
2023/09/14 07:19:15;;;;;;;;;;;;;;;13.24;98.68;102238.00;5025150;28;1123;-78
2023/09/14 07:21:41;;;;;;;;;;;;;;;13.31;98.79;102238.44;5026128;28;1096;-78
2023/09/14 07:24:06;;;;;;;;;;;;;;;13.36;98.59;102238.91;5031806;28;1953;-78
2023/09/14 07:26:32;;;;;;;;;;;;;;;13.43;99.13;102242.78;5038514;28;1092;-78
2023/09/14 07:28:58;;;;;;;;;;;;;;;13.50;98.82;102246.59;5032325;28;1102;-79
2023/09/14 07:31:23;;;;;;;;;;;;;;;13.56;99.08;102238.34;5029359;28;1235;-77
2023/09/14 07:33:49;;;;;;;;;;;;;;;13.64;98.96;102246.44;5037227;28;1096;-78
2023/09/14 07:36:14;;;;;;;;;;;;;;;13.71;98.65;102247.69;5038168;28;1215;-77
2023/09/14 07:38:39;;;;;;;;;;;;;;;13.77;98.63;102252.47;5041077;28;1083;-77
2023/09/14 07:41:04;;;;;;;;;;;;;;;13.85;98.38;102262.31;5032291;28;1261;-77
2023/09/14 07:43:29;;;;;;;;;;;;;;;13.91;98.49;102261.03;5038656;28;1155;-78
2023/09/14 07:45:55;;;;;;;;;;;;;;;13.97;98.41;102252.78;5029466;28;1882;-77
2023/09/14 07:48:21;;;;;;;;;;;;;;;14.05;98.36;102260.88;5036891;28;1314;-77
2023/09/14 07:50:47;;;;;;;;;;;;;;;14.11;98.51;102255.22;5028592;28;1421;-77
2023/09/14 07:53:12;;;;;;;;;;;;;;;14.17;98.27;102257.38;5037113;28;1283;-77
2023/09/14 07:55:37;;;;;;;;;;;;;;;14.24;98.71;102261.19;5037402;28;1315;-78
2023/09/14 07:58:03;;;;;;;;;;;;;;;14.28;97.92;102265.22;5035833;28;1220;-79
2023/09/14 08:00:28;;;;;;;;;;;;;;;14.33;98.27;102270.91;5034646;28;1343;-78
2023/09/14 08:02:53;;;;;;;;;;;;;;;14.39;97.86;102268.81;5034013;28;1236;-77
2023/09/14 08:05:19;;;;;;;;;;;;;;;14.44;98.14;102271.91;5028895;28;1890;-77
2023/09/14 08:07:45;;;;;;;;;;;;;;;14.50;98.34;102271.47;5034191;28;1253;-77
2023/09/14 08:10:10;;;;;;;;;;;;;;;14.57;98.26;102267.47;5025068;28;1253;-77
2023/09/14 08:12:38;;;;;;;;;;;;;;;14.63;97.70;102274.00;5028392;28;1285;-78
2023/09/14 08:15:04;;;;;;;;;;;;;;;14.67;97.79;102268.41;5028328;28;1207;-77
2023/09/14 08:17:29;;;;;;;;;;;;;;;14.73;97.61;102267.94;5024989;28;1256;-77
2023/09/14 08:19:54;;;;;;;;;;;;;;;14.81;97.59;102273.44;5025089;28;1188;-77
2023/09/14 08:22:22;;;;;;;;;;;;;;;14.90;97.62;102265.84;5021792;28;1174;-78
2023/09/14 08:24:47;;;;;;;;;;;;;;;14.98;97.78;102268.69;5024674;28;1898;-78
2023/09/14 08:27:13;;;;;;;;;;;;;;;15.03;97.28;102264.78;5023970;28;1094;-77
2023/09/14 08:29:38;;;;;;;;;;;;;;;15.11;97.41;102266.78;5032939;28;1436;-77
2023/09/14 08:32:03;;;;;;;;;;;;;;;15.16;97.24;102269.88;5033808;28;1271;-77
2023/09/14 08:34:28;;;;;;;;;;;;;;;15.22;96.23;102264.19;5035079;28;1361;-77
2023/09/14 08:36:54;;;;;;;;;;;;;;;15.30;96.35;102264.38;5030347;28;1196;-77
2023/09/14 08:39:19;;;;;;;;;;;;;;;15.35;96.26;102270.09;5037710;28;1484;-77
2023/09/14 08:41:44;;;;;;;;;;;;;;;15.41;95.36;102271.38;5032752;28;1719;-77
2023/09/14 08:44:10;;;;;;;;;;;;;;;15.48;95.32;102269.13;5032104;28;1894;-77
2023/09/14 08:46:35;;;;;;;;;;;;;;;15.54;94.95;102268.63;5029177;28;1344;-77
2023/09/14 08:49:02;;;;;;;;;;;;;;;15.60;95.71;102262.94;5026221;28;1221;-77
2023/09/14 08:51:29;;;;;;;;;;;;;;;15.67;95.46;102266.75;5035213;28;1157;-76
2023/09/14 08:53:55;;;;;;;;;;;;;;;15.75;95.15;102266.94;5026572;28;1168;-77
2023/09/14 08:56:21;;;;;;;;;;;;;;;15.84;95.02;102266.22;5033213;28;1062;-77
2023/09/14 08:58:46;;;;;;;;;;;;;;;15.92;94.58;102271.66;5029219;28;1249;-77
2023/09/14 09:01:13;;;;;;;;;;;;;;;15.98;93.52;102272.09;5032591;28;1251;-78
2023/09/14 09:03:38;;;;;;;;;;;;;;;16.03;94.36;102264.72;5030482;28;2024;-77
2023/09/14 09:06:03;;;;;;;;;;;;;;;16.14;93.90;102259.44;5029806;28;1221;-78
2023/09/14 09:08:29;;;;;;;;;;;;;;;16.20;93.72;102257.13;5030865;28;1336;-78
2023/09/14 09:10:55;;;;;;;;;;;;;;;16.28;94.09;102258.28;5032654;28;1095;-77
2023/09/14 09:13:22;;;;;;;;;;;;;;;16.36;93.52;102259.31;5032890;28;1491;-78
2023/09/14 09:15:47;;;;;;;;;;;;;;;16.46;93.37;102262.84;5029468;28;1094;-77
2023/09/14 09:18:12;;;;;;;;;;;;;;;16.56;92.85;102257.63;5027364;28;1223;-78
2023/09/14 09:20:40;;;;;;;;;;;;;;;16.64;92.81;102255.22;5027581;28;1185;-78
2023/09/14 09:23:05;;;;;;;;;;;;;;;16.75;93.01;102246.47;5022306;28;1091;-78
2023/09/14 09:25:42;;;;;;;;;;;;;;;16.81;92.18;102255.59;5021960;28;1898;-78
2023/09/14 09:28:07;;;;;;;;;;;;;;;16.89;92.22;102256.59;5024518;28;928;-79
2023/09/14 09:30:33;;;;;;;;;;;;;;;16.99;92.00;102252.22;5023327;28;1050;-78
2023/09/14 09:32:58;;;;;;;;;;;;;;;17.10;90.95;102253.09;5019390;28;1145;-78
2023/09/14 09:35:25;;;;;;;;;;;;;;;17.21;90.85;102247.75;5029893;28;1357;-78
2023/09/14 09:37:51;;;;;;;;;;;;;;;17.28;90.61;102254.13;5030971;28;1108;-78
2023/09/14 09:40:17;;;;;;;;;;;;;;;17.28;90.12;102250.66;5030449;28;1182;-78
2023/09/14 09:42:42;;;;;;;;;;;;;;;17.31;89.50;102253.84;5035816;28;1472;-78
2023/09/14 09:45:08;;;;;;;;;;;;;;;17.35;89.79;102260.47;5026156;28;1957;-77
2023/09/14 09:47:35;;;;;;;;;;;;;;;17.41;89.38;102259.94;5036599;28;1269;-78
2023/09/14 09:50:00;;;;;;;;;;;;;;;17.48;88.72;102245.31;5028807;28;1261;-78
2023/09/14 09:52:26;;;;;;;;;;;;;;;17.58;88.62;102247.13;5030988;28;1235;-78
2023/09/14 09:54:51;;;;;;;;;;;;;;;17.59;88.42;102251.41;5028439;28;1249;-78
2023/09/14 09:57:18;;;;;;;;;;;;;;;17.62;88.29;102251.97;5032361;28;1066;-78
2023/09/14 09:59:47;;;;;;;;;;;;;;;17.68;87.02;102246.19;5038119;28;1232;-78
2023/09/14 10:02:12;;;;;;;;;;;;;;;17.69;87.25;102237.34;5025445;28;1271;-78
2023/09/14 10:04:37;;;;;;;;;;;;;;;17.73;87.19;102241.38;5027062;28;1918;-77
2023/09/14 10:07:06;;;;;;;;;;;;;;;17.76;86.09;102243.72;5029052;28;1380;-78
2023/09/14 10:09:34;;;;;;;;;;;;;;;17.80;85.48;102244.28;5028303;28;1323;-78
2023/09/14 10:12:02;;;;;;;;;;;;;;;17.79;85.00;102242.63;5028628;28;1245;-78
2023/09/14 10:14:28;;;;;;;;;;;;;;;17.81;85.67;102245.94;5027707;28;1062;-78
2023/09/14 10:16:54;;;;;;;;;;;;;;;17.79;85.82;102247.88;5025599;28;1280;-78
2023/09/14 10:19:20;;;;;;;;;;;;;;;17.80;85.42;102239.03;5030477;28;1415;-78
2023/09/14 10:21:46;;;;;;;;;;;;;;;17.81;84.83;102245.94;5029780;28;1681;-78
2023/09/14 10:24:12;;;;;;;;;;;;;;;17.77;83.72;102245.38;5029217;28;1889;-79
2023/09/14 10:26:37;;;;;;;;;;;;;;;17.74;83.92;102234.34;5029748;28;1217;-78
2023/09/14 10:29:06;;;;;;;;;;;;;;;17.74;81.94;102239.59;5033428;28;1220;-78
2023/09/14 10:31:32;;;;;;;;;;;;;;;17.74;83.58;102239.59;5026480;28;1272;-78
2023/09/14 10:33:59;;;;;;;;;;;;;;;17.70;82.81;102240.78;5029714;28;1209;-78
2023/09/14 10:36:28;;;;;;;;;;;;;;;17.65;82.29;102235.13;5027989;28;1459;-79
2023/09/14 10:38:53;;;;;;;;;;;;;;;17.65;82.29;102229.88;5030120;28;1265;-79
2023/09/14 10:41:19;;;;;;;;;;;;;;;17.66;82.25;102232.38;5030962;28;1289;-78
2023/09/14 10:43:44;;;;;;;;;;;;;;;17.79;82.53;102232.13;5024639;28;1898;-78
2023/09/14 10:46:15;;;;;;;;;;;;;;;17.91;82.14;102225.78;5046696;28;1131;-79
2023/09/14 10:48:41;;;;;;;;;;;;;;;17.97;81.41;102225.22;5030167;28;1280;-78
2023/09/14 10:51:08;;;;;;;;;;;;;;;17.99;81.17;102223.28;5038954;28;1128;-77
2023/09/14 10:53:33;;;;;;;;;;;;;;;18.08;81.14;102226.03;5033452;28;1551;-78
2023/09/14 10:55:59;;;;;;;;;;;;;;;18.11;81.54;102215.25;5038040;28;1430;-78
2023/09/14 10:58:25;;;;;;;;;;;;;;;18.15;80.55;102221.88;5033864;28;1279;-78
2023/09/14 11:00:59;;;;;;;;;;;;;;;18.26;80.57;102219.91;5036350;28;1204;-79
2023/09/14 11:03:25;;;;;;;;;;;;;;;18.34;79.87;102215.75;5034834;28;1468;-79
2023/09/14 11:05:51;;;;;;;;;;;;;;;18.37;80.94;102211.06;5035458;28;2005;-79
2023/09/14 11:08:18;;;;;;;;;;;;;;;18.40;80.18;102217.81;5032698;28;1170;-78
2023/09/14 11:10:56;;;;;;;;;;;;;;;18.41;79.90;102209.81;5032902;28;1142;-79
2023/09/14 11:13:22;;;;;;;;;;;;;;;18.39;75.20;102214.34;5028027;28;1148;-78
2023/09/14 11:15:53;;;;;;;;;;;;;;;18.36;77.10;102209.41;5037819;28;1086;-78
2023/09/14 11:18:20;;;;;;;;;;;;;;;18.34;77.74;102211.31;5027181;28;1104;-79
2023/09/14 11:20:46;;;;;;;;;;;;;;;18.32;79.11;102202.78;5031929;28;969;-79
2023/09/14 11:23:11;;;;;;;;;;;;;;;18.31;78.19;102201.13;5027829;28;1213;-79
2023/09/14 11:25:39;;;;;;;;;;;;;;;18.32;75.65;102210.66;5027495;28;1894;-79
2023/09/14 11:28:05;;;;;;;;;;;;;;;18.29;77.00;102208.28;5031932;28;1085;-80
2023/09/14 11:30:31;;;;;;;;;;;;;;;18.26;75.45;102208.59;5029266;28;1056;-79
2023/09/14 11:32:59;;;;;;;;;;;;;;;18.25;76.50;102217.44;5034459;28;1120;-79
2023/09/14 11:35:47;;;;;;;;;;;;;;;18.24;76.77;102216.63;5030197;28;1251;-79
2023/09/14 11:38:17;;;;;;;;;;;;;;;18.24;77.51;102215.78;5023816;28;1391;-78
2023/09/14 11:40:42;;;;;;;;;;;;;;;18.24;75.66;102216.63;5024511;28;1268;-79
2023/09/14 11:43:07;;;;;;;;;;;;;;;18.25;77.36;102222.69;5028230;28;1492;-79
2023/09/14 11:45:34;;;;;;;;;;;;;;;18.27;76.29;102218.13;5024462;28;1894;-78
2023/09/14 11:48:00;;;;;;;;;;;;;;;18.22;76.96;102218.53;5029046;28;1200;-79
2023/09/14 11:50:27;;;;;;;;;;;;;;;18.22;75.73;102218.53;5033056;28;1213;-79
2023/09/14 11:52:53;;;;;;;;;;;;;;;18.32;73.13;102218.53;5040205;28;1270;-79
2023/09/14 11:55:21;;;;;;;;;;;;;;;18.49;74.33;102209.91;5034280;28;1501;-78
2023/09/14 11:57:46;;;;;;;;;;;;;;;18.73;74.26;102217.31;5034516;28;1123;-79
2023/09/14 12:00:12;;;;;;;;;;;;;;;18.93;75.07;102212.81;5032573;28;1131;-79
2023/09/14 12:02:37;;;;;;;;;;;;;;;18.97;75.14;102208.91;5031411;28;1357;-80
2023/09/14 12:05:02;;;;;;;;;;;;;;;18.98;70.07;102210.59;5027022;28;1902;-79
2023/09/14 12:07:28;;;;;;;;;;;;;;;19.00;68.56;102206.00;5029256;28;1082;-79
2023/09/14 12:09:54;;;;;;;;;;;;;;;19.01;71.08;102205.00;5024455;28;1156;-79
2023/09/14 12:12:26;;;;;;;;;;;;;;;18.99;72.26;102209.59;5027609;28;1260;-79
2023/09/14 12:14:52;;;;;;;;;;;;;;;18.99;72.91;102201.72;5040133;28;1291;-79
2023/09/14 12:17:21;;;;;;;;;;;;;;;18.99;72.74;102198.25;5032736;28;1068;-78
2023/09/14 12:19:48;;;;;;;;;;;;;;;19.01;73.97;102199.75;5029387;28;1228;-79
2023/09/14 12:22:15;;;;;;;;;;;;;;;19.09;73.18;102197.19;5027479;28;1123;-79
2023/09/14 12:24:41;;;;;;;;;;;;;;;19.14;72.88;102188.06;5019721;28;1956;-79
2023/09/14 12:27:06;;;;;;;;;;;;;;;19.20;71.46;102192.72;5028586;28;1095;-78
2023/09/14 12:29:31;;;;;;;;;;;;;;;19.28;70.07;102188.38;5026416;28;1212;-79
2023/09/14 12:31:56;;;;;;;;;;;;;;;19.40;70.02;102188.16;5031943;28;1247;-78
2023/09/14 12:34:22;;;;;;;;;;;;;;;19.47;71.69;102184.78;5029684;28;1355;-79
2023/09/14 12:36:48;;;;;;;;;;;;;;;19.55;71.46;102187.47;5025374;28;1229;-79
2023/09/14 12:39:15;;;;;;;;;;;;;;;19.58;70.86;102184.59;5029240;28;1205;-79